Domov               UVHVVR             MKGP            O straneh              
ZDRAVSTVENO VARSTVO RASTLIN
  MREŽA AGROMET. POSTAJ
 ► PROGNOSTIČNA OBVESTILA
AGROMETEOROLOŠKI PODATKI -
ARSO
OBVLADOVANJE TVEGANJ ZARADI
NEUGODNIH VREMENSKIH RAZMER
  ► NARAVNE NESREČE
  ► SUŠA/MOČA
  ► NAMAKANJE
  ► ŽLED (gozdarstvo)
KARTOGRAFSKI PRIKAZI
SPLETNE POVEZAVE
PROJEKTI IN PUBLIKACIJE

AGROMETEOROLOŠKA MREŽA: VREMENSKE POSTAJE IN FENOLOŠKA OPAZOVANJA

Pregled podatkov za lokacijo Brdo, meteorološka postaja 45235

Pregled senzorjev na lokaciji

ID Ime Zadnja
vrednost
Datum
zadnje
spremembe
Tip
senzorja
3761 Temperatura 2 m ( °C) 19,24 °C 19.8.2017 20:00 50YA
3762 Relativna vlaga 2 m (% RH) 86,25 % RH 19.8.2017 20:00 50YA
3763 Omočenost lista (U) 0 U 19.8.2017 20:00 A730WET
3765 Sončno sevanje (W/m2) 5,16 W/m2 19.8.2017 20:00 Pyranometer SP-Lite
3766 Smer vetra (°) 246,64 ° 19.8.2017 20:00 566.2S-130
3767 Hitrost vetra (km/h) 2,94 km/h 19.8.2017 20:00 566.2S-176 (200km/h)
3768 Padavine 0.2 mm (mm) 0 mm 19.8.2017 20:00 Rain-O-Matic

Pregled podatkov zadnjih 24 ur

Zap.
št.
Datum in čas Brdo
Hitrost
vetra
Omočenost
lista
Padavine
0.2
mm
Relativna
vlaga
2
m
Smer
vetra
Sončno
sevanje
Temperatura
2
m
0 19.8.2017 19:00 2,94 0 0 86,25 246,64 5,16 19,24
1 19.8.2017 18:30 2,65 0 0 87,61 241,19 14,4 19,67
2 19.8.2017 18:00 2,35 0 0 87,2 232,46 23,47 20,15
3 19.8.2017 17:30 5,32 0 0,2 83,11 343,71 93,66 20,89
4 19.8.2017 17:00 5,16 0 0 82,84 234,42 134,34 21,21
5 19.8.2017 16:30 3,23 0 0 84,8 292,73 115,11 21,08
6 19.8.2017 16:00 2,89 0 0 86,05 50,12 138,12 20,7
7 19.8.2017 15:30 3,71 0 0,4 81,45 76,56 86,88 21,39
8 19.8.2017 15:00 4,15 0 0 80,69 30,83 114,41 21,66
9 19.8.2017 14:30 1,98 0 0 82,97 52,28 132,2 21,72
10 19.8.2017 14:00 5,26 0 0 83,69 71,95 144,63 21,34
11 19.8.2017 13:30 5,72 0 0 87,87 343,06 203,49 21,1
12 19.8.2017 13:00 3,71 0 0,4 79,01 5,45 67,78 22,42
13 19.8.2017 12:30 2,56 0 0 72 358,97 118,53 23,83
14 19.8.2017 12:00 3,6 0 0 64,51 290,11 83,28 24,58
15 19.8.2017 11:30 4,55 0 0 58,73 260,49 379,58 26,38
16 19.8.2017 11:00 4,04 0 0 59,46 279,79 464,55 26,2
17 19.8.2017 10:30 3,08 0 0 64,19 195,85 415,99 26,16
18 19.8.2017 10:00 1,17 0 0 69,11 85,06 393,01 25,35
19 19.8.2017 09:30 1,48 0 0 73,83 228,77 420,84 23,65
20 19.8.2017 09:00 0,33 0 0 79,89 172,1 282,44 21,89
21 19.8.2017 08:30 1,62 0 0 83,82 191,2 171,69 20,78
22 19.8.2017 08:00 0,84 0 0 84,2 198,55 143,07 20,74
23 19.8.2017 07:30 0,68 0 0 81,87 144,89 245,43 20,69
24 19.8.2017 07:00 1,11 0 0 87,64 169,37 160,04 19,16
25 19.8.2017 06:30 0,23 0 0 96,01 154,81 94,88 17,5
26 19.8.2017 06:00 0,06 0 0 99,99 217,69 34,79 16,48
27 19.8.2017 05:30 0,18 0 0 100 359,86 8,21 15,58
28 19.8.2017 05:00 0,06 0 0 100 346,85 1,31 14,96
29 19.8.2017 04:30 0,65 0 0 100 332,06 0,73 15,5
30 19.8.2017 04:00 0,22 0 0 100 356,95 0,64 15,89
31 19.8.2017 03:30 1,05 0 0 100 8,74 0,7 15,42
32 19.8.2017 03:00 1,28 0 0 100 348,37 0,67 15,45
33 19.8.2017 02:30 1,33 0 0 100 351,23 0,67 15,47
34 19.8.2017 02:00 2,05 0 0 100 353,08 0,76 15,48
35 19.8.2017 01:30 1,02 0 0 99,99 2,31 0,67 15,95
36 19.8.2017 01:00 1,51 0 0 98,36 340,99 0,73 16,42
37 19.8.2017 00:30 1,53 0 0 98,86 3,78 0,7 16,36
38 19.8.2017 00:00 1,18 0 0 97,08 353,22 0,7 16,76
39 18.8.2017 23:30 0,68 0 0 95,63 347,16 0,73 17,16
40 18.8.2017 23:00 0,91 0 0 92,85 345,07 0,64 17,86
41 18.8.2017 22:30 1,97 0 0 84,04 359,9 0,73 19,47
42 18.8.2017 22:00 3,17 0 0 79,91 23,31 0,67 20,47
43 18.8.2017 21:30 1,97 0 0 79,41 54,78 0,67 20,75
44 18.8.2017 21:00 4,49 0 0 73,83 23,18 0,7 21,93
© 2011 Ministrstvo za kmetijstvo, gozdarstvo in prehrano. Vse pravice pridržane.